首页
METAR-TAF:

METAR-TAF

机场 :

郑州新郑国际机场

郑州, 中华人民共和国

纬度: 34-43N, 经度: 113-39E, 海拔: 111米

当前天气观测

该预报发布于32分钟前的09:00 UTC
风速4节,风向东南,在东转东南之间变化
温度 30°C
湿度 52%
气压 1001 hPa
能见度10公里或以上
1500米以下无云,无积雨云

METAR: ZHCC 190900Z 14002MPS 110V180 CAVOK 30/19 Q1001 NOSIG

时间: 17:32 (09:32 UTC)

预报

该预报发布于6小时和29分钟前的03:03 UTC
预报有效从19日的 06点(UTC)到 20日的 06点(UTC)
风速6节,风向东南
能見度: 5000
霾,

TAF: ZHCC 190303Z 1906/2006 14003MPS 5000 HZ NSC TX35/2006Z TN23/1922Z

超过4000个机场的气象观测和天气预报(METAR&TAF报告)。

可查询的气象台以黄色和红色小点在地图上表示。

将鼠标移到小点上方,可查看气象台名称。

然后点击查看天气观测和预报。

如需切换地图:点击带黑十字的绿色按钮放大地图;点击带横线的绿色按钮缩小地图;或者点击绿色箭头查看邻近地区的地图。


METAR-TAF: